Craynor, Kentucky
Current Conditions -  °F | °C
As of 5:15 AM on Saturday 20 Dec 2014 (Local Time) from KPBX Reporting Station
Overcast Overcast  
Wind Chill: 27°   Ceiling: 8000
Heat Index: 27°   Visibility: 10mi
Dew Point: 23°   Wind: 3mph
Humidity: 88%   Direction: 340°NNW
Pressure: 30.2"   Gusts: NA
Location:  37.4843°N, 82.6492°W
Report Text: KPBX 201015Z AUTO 34003KT 10SM OVC080 M03/M05 A3020 RMK AO2 T10301048
Loading
Personal Weather Stations






























Interactive Weather Map New forecast layout! Learn more

10-Day Weather Forecast

Advertisements
Track Severe Weather on mobile